Terminal Aerodrome Forecast
Issued by NWS Topeka, KS

Home | Current Version | Previous Version | Graphics & Text | Print | Product List | Glossary On
Versions: 1 2 3 4 5 6 7 8 9 10 11 12 13 14 15 16 17 18 19 20 21 22 23 24 25 26 27
000
FTUS43 KTOP 240700 AAA
TAFTOP
TAF AMD
KTOP 240752Z 2408/2506 19003KT 3SM BR SCT006 BKN250
      TEMPO 2408/2410 2SM BR BKN006
     FM241600 21010KT P6SM SCT250
     FM242300 23003KT P6SM SKC=

USA.gov is the U.S. government's official web portal to all federal, state and local government web resources and services.